sensor_id;sensor_type;location;lat;lon;timestamp;temperature;humidity
13052;DHT22;6592;47.484;9.726;2023-07-20T00:00:29;23.70;99.90
13052;DHT22;6592;47.484;9.726;2023-07-20T00:03:10;23.70;99.90
13052;DHT22;6592;47.484;9.726;2023-07-20T00:05:45;23.60;99.90
13052;DHT22;6592;47.484;9.726;2023-07-20T00:08:14;23.60;99.90
13052;DHT22;6592;47.484;9.726;2023-07-20T00:10:42;23.60;99.90
13052;DHT22;6592;47.484;9.726;2023-07-20T00:13:11;23.60;99.90
13052;DHT22;6592;47.484;9.726;2023-07-20T00:15:39;23.60;99.90
13052;DHT22;6592;47.484;9.726;2023-07-20T00:18:08;23.60;99.90
13052;DHT22;6592;47.484;9.726;2023-07-20T00:20:36;23.50;99.90
13052;DHT22;6592;47.484;9.726;2023-07-20T00:23:06;23.50;99.90
13052;DHT22;6592;47.484;9.726;2023-07-20T00:25:34;23.50;99.90
13052;DHT22;6592;47.484;9.726;2023-07-20T00:28:03;23.50;99.90
13052;DHT22;6592;47.484;9.726;2023-07-20T00:30:32;23.50;99.90
13052;DHT22;6592;47.484;9.726;2023-07-20T00:33:00;23.50;99.90
13052;DHT22;6592;47.484;9.726;2023-07-20T00:35:28;23.50;99.90
13052;DHT22;6592;47.484;9.726;2023-07-20T00:37:56;23.50;99.90
13052;DHT22;6592;47.484;9.726;2023-07-20T00:40:26;23.50;99.90
13052;DHT22;6592;47.484;9.726;2023-07-20T00:42:54;23.50;99.90
13052;DHT22;6592;47.484;9.726;2023-07-20T00:45:22;23.50;99.90
13052;DHT22;6592;47.484;9.726;2023-07-20T00:47:51;23.50;99.90
13052;DHT22;6592;47.484;9.726;2023-07-20T00:50:19;23.50;99.90
13052;DHT22;6592;47.484;9.726;2023-07-20T00:52:49;23.50;99.90
13052;DHT22;6592;47.484;9.726;2023-07-20T00:55:18;23.50;99.90
13052;DHT22;6592;47.484;9.726;2023-07-20T00:57:48;23.40;99.90
13052;DHT22;6592;47.484;9.726;2023-07-20T01:00:17;23.40;99.90
13052;DHT22;6592;47.484;9.726;2023-07-20T01:02:45;23.40;99.90
13052;DHT22;6592;47.484;9.726;2023-07-20T01:05:15;23.30;99.90
13052;DHT22;6592;47.484;9.726;2023-07-20T01:07:52;23.30;99.90
13052;DHT22;6592;47.484;9.726;2023-07-20T01:10:27;23.20;99.90
13052;DHT22;6592;47.484;9.726;2023-07-20T01:13:00;23.30;99.90
13052;DHT22;6592;47.484;9.726;2023-07-20T01:15:29;23.20;99.90
13052;DHT22;6592;47.484;9.726;2023-07-20T01:17:58;23.20;99.90
13052;DHT22;6592;47.484;9.726;2023-07-20T01:20:28;23.20;99.90
13052;DHT22;6592;47.484;9.726;2023-07-20T01:23:12;23.20;99.90
13052;DHT22;6592;47.484;9.726;2023-07-20T01:26:25;23.10;99.90
13052;DHT22;6592;47.484;9.726;2023-07-20T01:31:57;23.10;99.90
13052;DHT22;6592;47.484;9.726;2023-07-20T01:34:25;23.10;99.90
13052;DHT22;6592;47.484;9.726;2023-07-20T01:36:55;23.10;99.90
13052;DHT22;6592;47.484;9.726;2023-07-20T01:39:25;23.10;99.90
13052;DHT22;6592;47.484;9.726;2023-07-20T01:41:55;23.00;99.90
13052;DHT22;6592;47.484;9.726;2023-07-20T01:44:23;23.00;99.90
13052;DHT22;6592;47.484;9.726;2023-07-20T01:46:51;22.90;99.90
13052;DHT22;6592;47.484;9.726;2023-07-20T01:49:21;22.90;99.90
13052;DHT22;6592;47.484;9.726;2023-07-20T01:51:50;22.90;99.90
13052;DHT22;6592;47.484;9.726;2023-07-20T01:54:18;22.90;99.90
13052;DHT22;6592;47.484;9.726;2023-07-20T01:56:46;22.90;99.90
13052;DHT22;6592;47.484;9.726;2023-07-20T01:59:15;22.80;99.90
13052;DHT22;6592;47.484;9.726;2023-07-20T02:01:43;22.80;99.90
13052;DHT22;6592;47.484;9.726;2023-07-20T02:04:11;22.80;99.90
13052;DHT22;6592;47.484;9.726;2023-07-20T02:06:41;22.80;99.90
13052;DHT22;6592;47.484;9.726;2023-07-20T02:09:09;22.70;99.90
13052;DHT22;6592;47.484;9.726;2023-07-20T02:11:38;22.70;99.90
13052;DHT22;6592;47.484;9.726;2023-07-20T02:14:06;22.70;99.90
13052;DHT22;6592;47.484;9.726;2023-07-20T02:16:34;22.70;99.90
13052;DHT22;6592;47.484;9.726;2023-07-20T02:19:03;22.70;99.90
13052;DHT22;6592;47.484;9.726;2023-07-20T02:21:33;22.70;99.90
13052;DHT22;6592;47.484;9.726;2023-07-20T02:24:03;22.70;99.90
13052;DHT22;6592;47.484;9.726;2023-07-20T02:26:32;22.70;99.90
13052;DHT22;6592;47.484;9.726;2023-07-20T02:29:00;22.70;99.90
13052;DHT22;6592;47.484;9.726;2023-07-20T02:31:31;22.60;99.90
13052;DHT22;6592;47.484;9.726;2023-07-20T02:33:59;22.60;99.90
13052;DHT22;6592;47.484;9.726;2023-07-20T02:36:28;22.60;99.90
13052;DHT22;6592;47.484;9.726;2023-07-20T02:38:56;22.60;99.90
13052;DHT22;6592;47.484;9.726;2023-07-20T02:41:25;22.60;99.90
13052;DHT22;6592;47.484;9.726;2023-07-20T02:43:54;22.60;99.90
13052;DHT22;6592;47.484;9.726;2023-07-20T02:46:23;22.60;99.90
13052;DHT22;6592;47.484;9.726;2023-07-20T02:48:52;22.60;99.90
13052;DHT22;6592;47.484;9.726;2023-07-20T02:51:20;22.50;99.90
13052;DHT22;6592;47.484;9.726;2023-07-20T02:53:48;22.50;99.90
13052;DHT22;6592;47.484;9.726;2023-07-20T02:56:16;22.50;99.90
13052;DHT22;6592;47.484;9.726;2023-07-20T02:58:46;22.50;99.90
13052;DHT22;6592;47.484;9.726;2023-07-20T03:01:14;22.40;99.90
13052;DHT22;6592;47.484;9.726;2023-07-20T03:03:43;22.40;99.90
13052;DHT22;6592;47.484;9.726;2023-07-20T03:06:14;22.40;99.90
13052;DHT22;6592;47.484;9.726;2023-07-20T03:08:43;22.40;99.90
13052;DHT22;6592;47.484;9.726;2023-07-20T03:11:14;22.40;99.90
13052;DHT22;6592;47.484;9.726;2023-07-20T03:13:42;22.40;99.90
13052;DHT22;6592;47.484;9.726;2023-07-20T03:16:13;22.30;99.90
13052;DHT22;6592;47.484;9.726;2023-07-20T03:18:43;22.30;99.90
13052;DHT22;6592;47.484;9.726;2023-07-20T03:21:11;22.30;99.90
13052;DHT22;6592;47.484;9.726;2023-07-20T03:23:40;22.20;99.90
13052;DHT22;6592;47.484;9.726;2023-07-20T03:26:08;22.20;99.90
13052;DHT22;6592;47.484;9.726;2023-07-20T03:28:37;22.20;99.90
13052;DHT22;6592;47.484;9.726;2023-07-20T03:31:05;22.20;99.90
13052;DHT22;6592;47.484;9.726;2023-07-20T03:33:35;22.10;99.90
13052;DHT22;6592;47.484;9.726;2023-07-20T03:36:04;22.10;99.90
13052;DHT22;6592;47.484;9.726;2023-07-20T03:38:32;22.00;99.90
13052;DHT22;6592;47.484;9.726;2023-07-20T03:41:00;22.00;99.90
13052;DHT22;6592;47.484;9.726;2023-07-20T03:43:29;22.00;99.90
13052;DHT22;6592;47.484;9.726;2023-07-20T03:45:57;21.90;99.90
13052;DHT22;6592;47.484;9.726;2023-07-20T03:48:25;21.90;99.90
13052;DHT22;6592;47.484;9.726;2023-07-20T03:50:55;21.90;99.90
13052;DHT22;6592;47.484;9.726;2023-07-20T03:53:23;21.80;99.90
13052;DHT22;6592;47.484;9.726;2023-07-20T03:55:52;21.80;99.90
13052;DHT22;6592;47.484;9.726;2023-07-20T03:58:21;21.70;99.90
13052;DHT22;6592;47.484;9.726;2023-07-20T04:00:51;21.60;99.90
13052;DHT22;6592;47.484;9.726;2023-07-20T04:03:19;21.60;99.90
13052;DHT22;6592;47.484;9.726;2023-07-20T04:05:50;21.60;99.90
13052;DHT22;6592;47.484;9.726;2023-07-20T04:08:21;21.50;99.90
13052;DHT22;6592;47.484;9.726;2023-07-20T04:10:49;21.40;99.90
13052;DHT22;6592;47.484;9.726;2023-07-20T04:13:17;21.40;99.90
13052;DHT22;6592;47.484;9.726;2023-07-20T04:15:45;21.30;99.90
13052;DHT22;6592;47.484;9.726;2023-07-20T04:18:13;21.30;99.90
13052;DHT22;6592;47.484;9.726;2023-07-20T04:20:42;21.20;99.90
13052;DHT22;6592;47.484;9.726;2023-07-20T04:23:10;21.20;99.90
13052;DHT22;6592;47.484;9.726;2023-07-20T04:25:41;21.20;99.90
13052;DHT22;6592;47.484;9.726;2023-07-20T04:28:09;21.20;99.90
13052;DHT22;6592;47.484;9.726;2023-07-20T04:30:39;21.20;99.90
13052;DHT22;6592;47.484;9.726;2023-07-20T04:33:07;21.20;99.90
13052;DHT22;6592;47.484;9.726;2023-07-20T04:35:49;21.20;99.90
13052;DHT22;6592;47.484;9.726;2023-07-20T04:38:18;21.10;99.90
13052;DHT22;6592;47.484;9.726;2023-07-20T04:40:49;21.10;99.90
13052;DHT22;6592;47.484;9.726;2023-07-20T04:43:18;21.00;99.90
13052;DHT22;6592;47.484;9.726;2023-07-20T04:45:46;20.90;99.90
13052;DHT22;6592;47.484;9.726;2023-07-20T04:48:15;20.80;99.90
13052;DHT22;6592;47.484;9.726;2023-07-20T04:50:45;20.70;99.90
13052;DHT22;6592;47.484;9.726;2023-07-20T04:53:13;20.60;99.90
13052;DHT22;6592;47.484;9.726;2023-07-20T04:55:49;20.60;99.90
13052;DHT22;6592;47.484;9.726;2023-07-20T04:58:20;20.60;99.90
13052;DHT22;6592;47.484;9.726;2023-07-20T05:00:49;20.60;99.90
13052;DHT22;6592;47.484;9.726;2023-07-20T05:03:17;20.60;99.90
13052;DHT22;6592;47.484;9.726;2023-07-20T05:05:46;20.60;99.90
13052;DHT22;6592;47.484;9.726;2023-07-20T05:08:16;20.50;99.90
13052;DHT22;6592;47.484;9.726;2023-07-20T05:10:44;20.50;99.90
13052;DHT22;6592;47.484;9.726;2023-07-20T05:13:14;20.50;99.90
13052;DHT22;6592;47.484;9.726;2023-07-20T05:15:42;20.60;99.90
13052;DHT22;6592;47.484;9.726;2023-07-20T05:18:11;20.60;99.90
13052;DHT22;6592;47.484;9.726;2023-07-20T05:20:39;20.60;99.90
13052;DHT22;6592;47.484;9.726;2023-07-20T05:23:07;20.60;99.90
13052;DHT22;6592;47.484;9.726;2023-07-20T05:25:36;20.50;99.90
13052;DHT22;6592;47.484;9.726;2023-07-20T05:28:04;20.50;99.90
13052;DHT22;6592;47.484;9.726;2023-07-20T05:30:34;20.30;99.90
13052;DHT22;6592;47.484;9.726;2023-07-20T05:33:02;20.10;99.90
13052;DHT22;6592;47.484;9.726;2023-07-20T05:35:31;20.00;99.90
13052;DHT22;6592;47.484;9.726;2023-07-20T05:37:59;20.10;99.90
13052;DHT22;6592;47.484;9.726;2023-07-20T05:40:27;20.20;99.90
13052;DHT22;6592;47.484;9.726;2023-07-20T05:42:55;20.30;99.90
13052;DHT22;6592;47.484;9.726;2023-07-20T05:45:23;20.20;99.90
13052;DHT22;6592;47.484;9.726;2023-07-20T05:47:53;20.30;99.90
13052;DHT22;6592;47.484;9.726;2023-07-20T05:50:21;20.40;99.90
13052;DHT22;6592;47.484;9.726;2023-07-20T05:52:52;20.30;99.90
13052;DHT22;6592;47.484;9.726;2023-07-20T05:55:21;20.20;99.90
13052;DHT22;6592;47.484;9.726;2023-07-20T05:57:49;20.20;99.90
13052;DHT22;6592;47.484;9.726;2023-07-20T06:00:18;20.30;99.90
13052;DHT22;6592;47.484;9.726;2023-07-20T06:02:54;20.30;99.90
13052;DHT22;6592;47.484;9.726;2023-07-20T06:05:22;20.30;99.90
13052;DHT22;6592;47.484;9.726;2023-07-20T06:07:55;20.30;99.90
13052;DHT22;6592;47.484;9.726;2023-07-20T06:10:24;20.30;99.90
13052;DHT22;6592;47.484;9.726;2023-07-20T06:12:53;20.30;99.90
13052;DHT22;6592;47.484;9.726;2023-07-20T06:15:27;20.30;99.90
13052;DHT22;6592;47.484;9.726;2023-07-20T06:17:56;20.40;99.90
13052;DHT22;6592;47.484;9.726;2023-07-20T06:20:25;20.60;99.90
13052;DHT22;6592;47.484;9.726;2023-07-20T06:22:53;20.80;99.90
13052;DHT22;6592;47.484;9.726;2023-07-20T06:25:22;21.20;99.90
13052;DHT22;6592;47.484;9.726;2023-07-20T06:27:50;21.90;99.90
13052;DHT22;6592;47.484;9.726;2023-07-20T06:30:19;22.40;99.90
13052;DHT22;6592;47.484;9.726;2023-07-20T06:32:47;22.40;99.90
13052;DHT22;6592;47.484;9.726;2023-07-20T06:35:17;22.40;99.90
13052;DHT22;6592;47.484;9.726;2023-07-20T06:37:46;22.40;99.90
13052;DHT22;6592;47.484;9.726;2023-07-20T06:40:14;22.60;99.90
13052;DHT22;6592;47.484;9.726;2023-07-20T06:42:45;22.80;99.90
13052;DHT22;6592;47.484;9.726;2023-07-20T06:45:16;22.80;99.90
13052;DHT22;6592;47.484;9.726;2023-07-20T06:47:45;22.60;99.90
13052;DHT22;6592;47.484;9.726;2023-07-20T06:50:13;22.40;99.90
13052;DHT22;6592;47.484;9.726;2023-07-20T06:52:45;22.30;99.90
13052;DHT22;6592;47.484;9.726;2023-07-20T06:55:15;22.20;99.90
13052;DHT22;6592;47.484;9.726;2023-07-20T06:57:49;22.10;99.90
13052;DHT22;6592;47.484;9.726;2023-07-20T07:00:19;22.10;99.90
13052;DHT22;6592;47.484;9.726;2023-07-20T07:02:47;22.00;99.90
13052;DHT22;6592;47.484;9.726;2023-07-20T07:05:17;21.90;99.90
13052;DHT22;6592;47.484;9.726;2023-07-20T07:07:52;21.90;99.90
13052;DHT22;6592;47.484;9.726;2023-07-20T07:10:21;21.80;99.90
13052;DHT22;6592;47.484;9.726;2023-07-20T07:12:49;22.00;99.90
13052;DHT22;6592;47.484;9.726;2023-07-20T07:15:17;22.10;99.90
13052;DHT22;6592;47.484;9.726;2023-07-20T07:17:45;22.20;99.90
13052;DHT22;6592;47.484;9.726;2023-07-20T07:20:14;22.50;99.90
13052;DHT22;6592;47.484;9.726;2023-07-20T07:22:45;22.80;99.90
13052;DHT22;6592;47.484;9.726;2023-07-20T07:25:15;23.20;99.90
13052;DHT22;6592;47.484;9.726;2023-07-20T07:27:49;23.60;99.90
13052;DHT22;6592;47.484;9.726;2023-07-20T07:30:18;23.90;99.90
13052;DHT22;6592;47.484;9.726;2023-07-20T07:32:46;24.00;99.90
13052;DHT22;6592;47.484;9.726;2023-07-20T07:35:15;24.30;99.90
13052;DHT22;6592;47.484;9.726;2023-07-20T07:37:43;25.00;99.90
13052;DHT22;6592;47.484;9.726;2023-07-20T07:40:34;26.00;99.90
13052;DHT22;6592;47.484;9.726;2023-07-20T07:43:03;27.30;99.90
13052;DHT22;6592;47.484;9.726;2023-07-20T07:45:34;28.50;99.90
13052;DHT22;6592;47.484;9.726;2023-07-20T07:48:04;29.50;99.90
13052;DHT22;6592;47.484;9.726;2023-07-20T07:50:33;30.50;99.90
13052;DHT22;6592;47.484;9.726;2023-07-20T07:53:01;30.70;99.90
13052;DHT22;6592;47.484;9.726;2023-07-20T07:55:30;31.30;99.90
13052;DHT22;6592;47.484;9.726;2023-07-20T07:57:59;32.00;98.90
13052;DHT22;6592;47.484;9.726;2023-07-20T08:00:27;32.30;98.00
13052;DHT22;6592;47.484;9.726;2023-07-20T08:02:56;32.60;96.60
13052;DHT22;6592;47.484;9.726;2023-07-20T08:05:25;33.40;95.50
13052;DHT22;6592;47.484;9.726;2023-07-20T08:07:53;34.40;93.60
13052;DHT22;6592;47.484;9.726;2023-07-20T08:10:22;34.90;89.50
13052;DHT22;6592;47.484;9.726;2023-07-20T08:12:50;35.40;85.80
13052;DHT22;6592;47.484;9.726;2023-07-20T08:15:20;35.40;82.70
13052;DHT22;6592;47.484;9.726;2023-07-20T08:17:48;35.90;81.40
13052;DHT22;6592;47.484;9.726;2023-07-20T08:20:18;36.20;74.90
13052;DHT22;6592;47.484;9.726;2023-07-20T08:22:50;36.40;71.20
13052;DHT22;6592;47.484;9.726;2023-07-20T08:25:19;36.40;71.20
13052;DHT22;6592;47.484;9.726;2023-07-20T08:27:47;36.80;70.10
13052;DHT22;6592;47.484;9.726;2023-07-20T08:30:16;37.50;66.80
13052;DHT22;6592;47.484;9.726;2023-07-20T08:32:45;37.60;65.90
13052;DHT22;6592;47.484;9.726;2023-07-20T08:35:14;37.60;62.90
13052;DHT22;6592;47.484;9.726;2023-07-20T08:37:43;37.60;62.80
13052;DHT22;6592;47.484;9.726;2023-07-20T08:40:12;38.00;63.90
13052;DHT22;6592;47.484;9.726;2023-07-20T08:42:41;38.20;60.40
13052;DHT22;6592;47.484;9.726;2023-07-20T08:45:13;37.80;58.80
13052;DHT22;6592;47.484;9.726;2023-07-20T08:47:42;37.00;60.50
13052;DHT22;6592;47.484;9.726;2023-07-20T08:50:14;36.20;60.70
13052;DHT22;6592;47.484;9.726;2023-07-20T08:52:42;35.50;63.30
13052;DHT22;6592;47.484;9.726;2023-07-20T08:55:11;34.80;64.10
13052;DHT22;6592;47.484;9.726;2023-07-20T08:57:41;34.20;65.60
13052;DHT22;6592;47.484;9.726;2023-07-20T09:00:14;34.00;64.90
13052;DHT22;6592;47.484;9.726;2023-07-20T09:02:45;33.70;65.00
13052;DHT22;6592;47.484;9.726;2023-07-20T09:05:15;33.60;65.70
13052;DHT22;6592;47.484;9.726;2023-07-20T09:07:43;33.30;67.50
13052;DHT22;6592;47.484;9.726;2023-07-20T09:10:12;32.90;68.50
13052;DHT22;6592;47.484;9.726;2023-07-20T09:12:42;32.80;69.90
13052;DHT22;6592;47.484;9.726;2023-07-20T09:15:11;33.50;69.20
13052;DHT22;6592;47.484;9.726;2023-07-20T09:17:45;33.90;68.60
13052;DHT22;6592;47.484;9.726;2023-07-20T09:20:17;34.40;70.00
13052;DHT22;6592;47.484;9.726;2023-07-20T09:22:51;35.20;67.60
13052;DHT22;6592;47.484;9.726;2023-07-20T09:25:22;36.20;62.90
13052;DHT22;6592;47.484;9.726;2023-07-20T09:27:55;36.90;63.50
13052;DHT22;6592;47.484;9.726;2023-07-20T09:30:26;37.30;61.30
13052;DHT22;6592;47.484;9.726;2023-07-20T09:32:58;37.80;61.40
13052;DHT22;6592;47.484;9.726;2023-07-20T09:35:29;38.10;59.80
13052;DHT22;6592;47.484;9.726;2023-07-20T09:38:09;38.20;58.40
13052;DHT22;6592;47.484;9.726;2023-07-20T09:40:41;38.50;58.70
13052;DHT22;6592;47.484;9.726;2023-07-20T09:43:12;38.80;59.80
13052;DHT22;6592;47.484;9.726;2023-07-20T09:45:44;39.20;59.30
13052;DHT22;6592;47.484;9.726;2023-07-20T09:48:15;38.80;57.50
13052;DHT22;6592;47.484;9.726;2023-07-20T09:50:50;38.70;58.00
13052;DHT22;6592;47.484;9.726;2023-07-20T09:53:19;39.10;59.10
13052;DHT22;6592;47.484;9.726;2023-07-20T09:55:48;39.50;59.30
13052;DHT22;6592;47.484;9.726;2023-07-20T09:58:17;39.50;58.20
13052;DHT22;6592;47.484;9.726;2023-07-20T10:00:46;39.60;57.00
13052;DHT22;6592;47.484;9.726;2023-07-20T10:03:22;39.80;56.40
13052;DHT22;6592;47.484;9.726;2023-07-20T10:05:56;39.90;57.40
13052;DHT22;6592;47.484;9.726;2023-07-20T10:08:26;39.90;55.20
13052;DHT22;6592;47.484;9.726;2023-07-20T10:10:59;39.80;56.20
13052;DHT22;6592;47.484;9.726;2023-07-20T10:13:30;39.80;54.90
13052;DHT22;6592;47.484;9.726;2023-07-20T10:16:02;39.80;55.10
13052;DHT22;6592;47.484;9.726;2023-07-20T10:18:34;39.80;54.50
13052;DHT22;6592;47.484;9.726;2023-07-20T10:21:07;40.10;55.40
13052;DHT22;6592;47.484;9.726;2023-07-20T10:23:40;40.20;55.30
13052;DHT22;6592;47.484;9.726;2023-07-20T10:26:09;40.60;55.00
13052;DHT22;6592;47.484;9.726;2023-07-20T10:28:38;40.40;54.00
13052;DHT22;6592;47.484;9.726;2023-07-20T10:31:08;40.10;54.30
13052;DHT22;6592;47.484;9.726;2023-07-20T10:33:38;40.20;52.30
13052;DHT22;6592;47.484;9.726;2023-07-20T10:36:09;40.00;53.30
13052;DHT22;6592;47.484;9.726;2023-07-20T10:38:40;39.70;54.30
13052;DHT22;6592;47.484;9.726;2023-07-20T10:41:19;39.50;54.40
13052;DHT22;6592;47.484;9.726;2023-07-20T10:43:48;39.40;53.40
13052;DHT22;6592;47.484;9.726;2023-07-20T10:46:42;39.70;55.40
13052;DHT22;6592;47.484;9.726;2023-07-20T10:49:13;39.60;52.40
13052;DHT22;6592;47.484;9.726;2023-07-20T10:51:44;39.00;54.50
13052;DHT22;6592;47.484;9.726;2023-07-20T10:54:46;38.90;54.40
13052;DHT22;6592;47.484;9.726;2023-07-20T10:57:32;38.90;53.80
13052;DHT22;6592;47.484;9.726;2023-07-20T11:00:10;38.50;53.80
13052;DHT22;6592;47.484;9.726;2023-07-20T11:02:47;38.70;52.40
13052;DHT22;6592;47.484;9.726;2023-07-20T11:05:37;37.50;52.60
13052;DHT22;6592;47.484;9.726;2023-07-20T11:08:10;37.00;54.60
13052;DHT22;6592;47.484;9.726;2023-07-20T11:10:39;36.80;56.00
13052;DHT22;6592;47.484;9.726;2023-07-20T11:13:22;36.60;55.70
13052;DHT22;6592;47.484;9.726;2023-07-20T11:16:04;37.00;55.60
13052;DHT22;6592;47.484;9.726;2023-07-20T11:18:34;37.30;55.70
13052;DHT22;6592;47.484;9.726;2023-07-20T11:21:09;37.50;55.00
13052;DHT22;6592;47.484;9.726;2023-07-20T11:23:39;37.80;54.80
13052;DHT22;6592;47.484;9.726;2023-07-20T11:26:08;38.00;54.30
13052;DHT22;6592;47.484;9.726;2023-07-20T11:28:36;38.40;55.80
13052;DHT22;6592;47.484;9.726;2023-07-20T11:31:05;38.80;56.10
13052;DHT22;6592;47.484;9.726;2023-07-20T11:33:33;38.80;54.10
13052;DHT22;6592;47.484;9.726;2023-07-20T11:36:01;38.80;54.70
13052;DHT22;6592;47.484;9.726;2023-07-20T11:38:51;38.40;54.00
13052;DHT22;6592;47.484;9.726;2023-07-20T11:41:19;37.90;52.90
13052;DHT22;6592;47.484;9.726;2023-07-20T11:43:48;37.70;54.20
13052;DHT22;6592;47.484;9.726;2023-07-20T11:46:16;37.60;55.00
13052;DHT22;6592;47.484;9.726;2023-07-20T11:48:44;37.50;55.50
13052;DHT22;6592;47.484;9.726;2023-07-20T11:51:16;37.80;55.30
13052;DHT22;6592;47.484;9.726;2023-07-20T11:53:44;38.10;54.20
13052;DHT22;6592;47.484;9.726;2023-07-20T11:56:15;38.10;53.70
13052;DHT22;6592;47.484;9.726;2023-07-20T11:58:44;38.20;53.80
13052;DHT22;6592;47.484;9.726;2023-07-20T12:01:12;37.90;53.00
13052;DHT22;6592;47.484;9.726;2023-07-20T12:03:42;37.70;55.90
13052;DHT22;6592;47.484;9.726;2023-07-20T12:06:11;37.80;56.30
13052;DHT22;6592;47.484;9.726;2023-07-20T12:08:39;37.60;56.80
13052;DHT22;6592;47.484;9.726;2023-07-20T12:11:08;37.40;55.90
13052;DHT22;6592;47.484;9.726;2023-07-20T12:13:39;37.40;56.70
13052;DHT22;6592;47.484;9.726;2023-07-20T12:16:12;37.30;55.00
13052;DHT22;6592;47.484;9.726;2023-07-20T12:18:42;37.00;55.20
13052;DHT22;6592;47.484;9.726;2023-07-20T12:21:11;37.20;55.20
13052;DHT22;6592;47.484;9.726;2023-07-20T12:23:40;37.20;56.70
13052;DHT22;6592;47.484;9.726;2023-07-20T12:26:10;37.20;54.40
13052;DHT22;6592;47.484;9.726;2023-07-20T12:28:42;37.30;55.00
13052;DHT22;6592;47.484;9.726;2023-07-20T12:31:11;37.20;55.10
13052;DHT22;6592;47.484;9.726;2023-07-20T12:33:40;36.90;54.60
13052;DHT22;6592;47.484;9.726;2023-07-20T12:36:09;36.80;53.50
13052;DHT22;6592;47.484;9.726;2023-07-20T12:38:37;36.40;53.50
13052;DHT22;6592;47.484;9.726;2023-07-20T12:41:06;36.30;54.00
13052;DHT22;6592;47.484;9.726;2023-07-20T12:43:34;36.30;57.10
13052;DHT22;6592;47.484;9.726;2023-07-20T12:46:04;36.30;55.90
13052;DHT22;6592;47.484;9.726;2023-07-20T12:48:32;36.40;56.10
13052;DHT22;6592;47.484;9.726;2023-07-20T12:51:01;36.50;57.10
13052;DHT22;6592;47.484;9.726;2023-07-20T12:53:31;36.70;56.30
13052;DHT22;6592;47.484;9.726;2023-07-20T12:55:59;36.50;56.80
13052;DHT22;6592;47.484;9.726;2023-07-20T12:58:48;36.40;56.90
13052;DHT22;6592;47.484;9.726;2023-07-20T13:01:18;36.10;56.60
13052;DHT22;6592;47.484;9.726;2023-07-20T13:03:46;35.50;55.90
13052;DHT22;6592;47.484;9.726;2023-07-20T13:06:18;35.30;55.60
13052;DHT22;6592;47.484;9.726;2023-07-20T13:08:49;34.80;55.60
13052;DHT22;6592;47.484;9.726;2023-07-20T13:11:22;34.20;56.30
13052;DHT22;6592;47.484;9.726;2023-07-20T13:13:51;33.80;57.20
13052;DHT22;6592;47.484;9.726;2023-07-20T13:16:21;33.30;58.50
13052;DHT22;6592;47.484;9.726;2023-07-20T13:18:49;32.80;58.90
13052;DHT22;6592;47.484;9.726;2023-07-20T13:21:18;32.50;59.90
13052;DHT22;6592;47.484;9.726;2023-07-20T13:23:50;32.30;61.40
13052;DHT22;6592;47.484;9.726;2023-07-20T13:26:19;32.10;60.70
13052;DHT22;6592;47.484;9.726;2023-07-20T13:28:47;31.90;62.30
13052;DHT22;6592;47.484;9.726;2023-07-20T13:31:15;31.70;61.60
13052;DHT22;6592;47.484;9.726;2023-07-20T13:33:46;31.20;61.90
13052;DHT22;6592;47.484;9.726;2023-07-20T13:36:23;31.10;63.10
13052;DHT22;6592;47.484;9.726;2023-07-20T13:38:52;31.10;63.40
13052;DHT22;6592;47.484;9.726;2023-07-20T13:41:20;31.10;63.90
13052;DHT22;6592;47.484;9.726;2023-07-20T13:43:50;31.10;65.60
13052;DHT22;6592;47.484;9.726;2023-07-20T13:46:23;31.10;64.10
13052;DHT22;6592;47.484;9.726;2023-07-20T13:48:56;31.20;65.50
13052;DHT22;6592;47.484;9.726;2023-07-20T13:51:24;31.20;65.80
13052;DHT22;6592;47.484;9.726;2023-07-20T13:53:54;31.10;63.80
13052;DHT22;6592;47.484;9.726;2023-07-20T13:56:23;31.20;63.10
13052;DHT22;6592;47.484;9.726;2023-07-20T13:58:51;31.30;63.80
13052;DHT22;6592;47.484;9.726;2023-07-20T14:01:20;31.30;65.40
13052;DHT22;6592;47.484;9.726;2023-07-20T14:03:53;31.20;66.60
13052;DHT22;6592;47.484;9.726;2023-07-20T14:06:23;31.10;67.10
13052;DHT22;6592;47.484;9.726;2023-07-20T14:08:55;31.10;65.20
13052;DHT22;6592;47.484;9.726;2023-07-20T14:11:24;31.00;64.00
13052;DHT22;6592;47.484;9.726;2023-07-20T14:13:55;30.80;62.00
13052;DHT22;6592;47.484;9.726;2023-07-20T14:16:25;30.70;63.60
13052;DHT22;6592;47.484;9.726;2023-07-20T14:18:54;30.70;63.70
13052;DHT22;6592;47.484;9.726;2023-07-20T14:21:24;30.70;64.60
13052;DHT22;6592;47.484;9.726;2023-07-20T14:23:52;30.70;63.80
13052;DHT22;6592;47.484;9.726;2023-07-20T14:26:21;30.70;66.20
13052;DHT22;6592;47.484;9.726;2023-07-20T14:28:49;30.70;65.60
13052;DHT22;6592;47.484;9.726;2023-07-20T14:31:17;30.60;65.40
13052;DHT22;6592;47.484;9.726;2023-07-20T14:33:47;30.50;64.00
13052;DHT22;6592;47.484;9.726;2023-07-20T14:36:15;30.60;67.30
13052;DHT22;6592;47.484;9.726;2023-07-20T14:38:46;30.70;65.00
13052;DHT22;6592;47.484;9.726;2023-07-20T14:41:14;30.70;65.50
13052;DHT22;6592;47.484;9.726;2023-07-20T14:43:42;30.70;66.10
13052;DHT22;6592;47.484;9.726;2023-07-20T14:46:12;30.70;66.90
13052;DHT22;6592;47.484;9.726;2023-07-20T14:48:40;30.70;67.30
13052;DHT22;6592;47.484;9.726;2023-07-20T14:51:08;30.70;64.90
13052;DHT22;6592;47.484;9.726;2023-07-20T14:53:37;30.80;66.70
13052;DHT22;6592;47.484;9.726;2023-07-20T14:56:06;30.70;66.20
13052;DHT22;6592;47.484;9.726;2023-07-20T14:58:35;30.70;66.10
13052;DHT22;6592;47.484;9.726;2023-07-20T15:01:03;30.40;63.90
13052;DHT22;6592;47.484;9.726;2023-07-20T15:03:32;30.50;65.60
13052;DHT22;6592;47.484;9.726;2023-07-20T15:06:01;30.50;65.60
13052;DHT22;6592;47.484;9.726;2023-07-20T15:08:30;30.60;67.50
13052;DHT22;6592;47.484;9.726;2023-07-20T15:10:59;30.70;65.60
13052;DHT22;6592;47.484;9.726;2023-07-20T15:13:28;30.80;66.50
13052;DHT22;6592;47.484;9.726;2023-07-20T15:15:57;30.90;65.70
13052;DHT22;6592;47.484;9.726;2023-07-20T15:18:25;30.90;64.80
13052;DHT22;6592;47.484;9.726;2023-07-20T15:21:11;30.90;65.00
13052;DHT22;6592;47.484;9.726;2023-07-20T15:23:39;30.80;66.40
13052;DHT22;6592;47.484;9.726;2023-07-20T15:26:08;30.90;67.40
13052;DHT22;6592;47.484;9.726;2023-07-20T15:28:39;31.00;68.10
13052;DHT22;6592;47.484;9.726;2023-07-20T15:31:08;31.20;68.30
13052;DHT22;6592;47.484;9.726;2023-07-20T15:33:36;31.20;65.60
13052;DHT22;6592;47.484;9.726;2023-07-20T15:36:04;31.20;63.50
13052;DHT22;6592;47.484;9.726;2023-07-20T15:38:33;31.10;63.00
13052;DHT22;6592;47.484;9.726;2023-07-20T15:41:02;31.20;65.10
13052;DHT22;6592;47.484;9.726;2023-07-20T15:43:30;31.10;63.30
13052;DHT22;6592;47.484;9.726;2023-07-20T15:49:20;30.90;63.90
13052;DHT22;6592;47.484;9.726;2023-07-20T15:51:48;30.80;64.70
13052;DHT22;6592;47.484;9.726;2023-07-20T15:54:17;30.60;64.40
13052;DHT22;6592;47.484;9.726;2023-07-20T15:56:45;30.50;64.40
13052;DHT22;6592;47.484;9.726;2023-07-20T15:59:14;30.50;66.30
13052;DHT22;6592;47.484;9.726;2023-07-20T16:01:44;30.50;66.70
13052;DHT22;6592;47.484;9.726;2023-07-20T16:04:14;30.40;68.90
13052;DHT22;6592;47.484;9.726;2023-07-20T16:06:42;30.40;67.80
13052;DHT22;6592;47.484;9.726;2023-07-20T16:09:10;30.60;68.60